sensor_id;sensor_type;location;lat;lon;timestamp;temperature;humidity
14995;DHT22;7593;49.006;8.372;2023-09-08T00:02:27;21.70;99.90
14995;DHT22;7593;49.006;8.372;2023-09-08T00:04:55;21.60;99.90
14995;DHT22;7593;49.006;8.372;2023-09-08T00:07:21;21.60;99.90
14995;DHT22;7593;49.006;8.372;2023-09-08T00:09:48;21.50;99.90
14995;DHT22;7593;49.006;8.372;2023-09-08T00:12:17;21.50;99.90
14995;DHT22;7593;49.006;8.372;2023-09-08T00:14:43;21.40;99.90
14995;DHT22;7593;49.006;8.372;2023-09-08T00:17:10;21.40;99.90
14995;DHT22;7593;49.006;8.372;2023-09-08T00:19:37;21.30;99.90
14995;DHT22;7593;49.006;8.372;2023-09-08T00:22:04;21.30;99.90
14995;DHT22;7593;49.006;8.372;2023-09-08T00:24:32;21.30;99.90
14995;DHT22;7593;49.006;8.372;2023-09-08T00:26:59;21.30;99.90
14995;DHT22;7593;49.006;8.372;2023-09-08T00:29:27;21.20;99.90
14995;DHT22;7593;49.006;8.372;2023-09-08T00:31:54;21.20;99.90
14995;DHT22;7593;49.006;8.372;2023-09-08T00:34:20;21.10;99.90
14995;DHT22;7593;49.006;8.372;2023-09-08T00:36:47;21.10;99.90
14995;DHT22;7593;49.006;8.372;2023-09-08T00:39:14;21.10;99.90
14995;DHT22;7593;49.006;8.372;2023-09-08T00:41:41;21.00;99.90
14995;DHT22;7593;49.006;8.372;2023-09-08T00:44:07;21.00;99.90
14995;DHT22;7593;49.006;8.372;2023-09-08T00:46:38;20.90;99.90
14995;DHT22;7593;49.006;8.372;2023-09-08T00:49:05;20.90;99.90
14995;DHT22;7593;49.006;8.372;2023-09-08T00:51:34;20.80;99.90
14995;DHT22;7593;49.006;8.372;2023-09-08T00:54:04;20.70;99.90
14995;DHT22;7593;49.006;8.372;2023-09-08T00:56:31;20.60;99.90
14995;DHT22;7593;49.006;8.372;2023-09-08T00:58:57;20.60;99.90
14995;DHT22;7593;49.006;8.372;2023-09-08T01:01:24;20.60;99.90
14995;DHT22;7593;49.006;8.372;2023-09-08T01:03:53;20.50;99.90
14995;DHT22;7593;49.006;8.372;2023-09-08T01:06:19;20.40;99.90
14995;DHT22;7593;49.006;8.372;2023-09-08T01:08:48;20.30;99.90
14995;DHT22;7593;49.006;8.372;2023-09-08T01:11:15;20.30;99.90
14995;DHT22;7593;49.006;8.372;2023-09-08T01:13:43;20.20;99.90
14995;DHT22;7593;49.006;8.372;2023-09-08T01:16:10;20.20;99.90
14995;DHT22;7593;49.006;8.372;2023-09-08T01:18:37;20.20;99.90
14995;DHT22;7593;49.006;8.372;2023-09-08T01:21:21;20.20;99.90
14995;DHT22;7593;49.006;8.372;2023-09-08T01:26:43;20.10;99.90
14995;DHT22;7593;49.006;8.372;2023-09-08T01:29:10;20.10;99.90
14995;DHT22;7593;49.006;8.372;2023-09-08T01:31:37;20.10;99.90
14995;DHT22;7593;49.006;8.372;2023-09-08T01:34:05;20.10;99.90
14995;DHT22;7593;49.006;8.372;2023-09-08T01:36:32;20.10;99.90
14995;DHT22;7593;49.006;8.372;2023-09-08T01:38:59;20.10;99.90
14995;DHT22;7593;49.006;8.372;2023-09-08T01:41:26;20.00;99.90
14995;DHT22;7593;49.006;8.372;2023-09-08T01:43:54;20.00;99.90
14995;DHT22;7593;49.006;8.372;2023-09-08T01:46:21;19.90;99.90
14995;DHT22;7593;49.006;8.372;2023-09-08T01:48:48;19.90;99.90
14995;DHT22;7593;49.006;8.372;2023-09-08T01:51:14;19.90;99.90
14995;DHT22;7593;49.006;8.372;2023-09-08T01:53:41;19.90;99.90
14995;DHT22;7593;49.006;8.372;2023-09-08T01:56:08;19.80;99.90
14995;DHT22;7593;49.006;8.372;2023-09-08T01:58:34;19.80;99.90
14995;DHT22;7593;49.006;8.372;2023-09-08T02:01:02;19.80;99.90
14995;DHT22;7593;49.006;8.372;2023-09-08T02:03:31;19.80;99.90
14995;DHT22;7593;49.006;8.372;2023-09-08T02:05:58;19.80;99.90
14995;DHT22;7593;49.006;8.372;2023-09-08T02:08:24;19.80;99.90
14995;DHT22;7593;49.006;8.372;2023-09-08T02:10:51;19.70;99.90
14995;DHT22;7593;49.006;8.372;2023-09-08T02:13:18;19.60;99.90
14995;DHT22;7593;49.006;8.372;2023-09-08T02:15:44;19.60;99.90
14995;DHT22;7593;49.006;8.372;2023-09-08T02:18:12;19.60;99.90
14995;DHT22;7593;49.006;8.372;2023-09-08T02:20:39;19.50;99.90
14995;DHT22;7593;49.006;8.372;2023-09-08T02:23:06;19.50;99.90
14995;DHT22;7593;49.006;8.372;2023-09-08T02:25:33;19.50;99.90
14995;DHT22;7593;49.006;8.372;2023-09-08T02:28:00;19.40;99.90
14995;DHT22;7593;49.006;8.372;2023-09-08T02:30:26;19.40;99.90
14995;DHT22;7593;49.006;8.372;2023-09-08T02:32:53;19.30;99.90
14995;DHT22;7593;49.006;8.372;2023-09-08T02:35:23;19.20;99.90
14995;DHT22;7593;49.006;8.372;2023-09-08T02:37:50;19.20;99.90
14995;DHT22;7593;49.006;8.372;2023-09-08T02:40:17;19.20;99.90
14995;DHT22;7593;49.006;8.372;2023-09-08T02:42:44;19.20;99.90
14995;DHT22;7593;49.006;8.372;2023-09-08T02:45:12;19.10;99.90
14995;DHT22;7593;49.006;8.372;2023-09-08T02:47:39;19.10;99.90
14995;DHT22;7593;49.006;8.372;2023-09-08T02:50:06;19.10;99.90
14995;DHT22;7593;49.006;8.372;2023-09-08T02:52:34;19.00;99.90
14995;DHT22;7593;49.006;8.372;2023-09-08T02:55:01;19.00;99.90
14995;DHT22;7593;49.006;8.372;2023-09-08T02:57:28;18.90;99.90
14995;DHT22;7593;49.006;8.372;2023-09-08T02:59:54;18.90;99.90
14995;DHT22;7593;49.006;8.372;2023-09-08T03:02:22;18.90;99.90
14995;DHT22;7593;49.006;8.372;2023-09-08T03:04:48;18.90;99.90
14995;DHT22;7593;49.006;8.372;2023-09-08T03:07:15;18.80;99.90
14995;DHT22;7593;49.006;8.372;2023-09-08T03:09:44;18.70;99.90
14995;DHT22;7593;49.006;8.372;2023-09-08T03:12:10;18.70;99.90
14995;DHT22;7593;49.006;8.372;2023-09-08T03:14:37;18.70;99.90
14995;DHT22;7593;49.006;8.372;2023-09-08T03:17:04;18.60;99.90
14995;DHT22;7593;49.006;8.372;2023-09-08T03:19:31;18.60;99.90
14995;DHT22;7593;49.006;8.372;2023-09-08T03:21:58;18.60;99.90
14995;DHT22;7593;49.006;8.372;2023-09-08T03:24:24;18.60;99.90
14995;DHT22;7593;49.006;8.372;2023-09-08T03:26:53;18.60;99.90
14995;DHT22;7593;49.006;8.372;2023-09-08T03:29:19;18.60;99.90
14995;DHT22;7593;49.006;8.372;2023-09-08T03:31:46;18.50;99.90
14995;DHT22;7593;49.006;8.372;2023-09-08T03:34:13;18.60;99.90
14995;DHT22;7593;49.006;8.372;2023-09-08T03:36:40;18.50;99.90
14995;DHT22;7593;49.006;8.372;2023-09-08T03:39:07;18.50;99.90
14995;DHT22;7593;49.006;8.372;2023-09-08T03:41:35;18.50;99.90
14995;DHT22;7593;49.006;8.372;2023-09-08T03:44:03;18.40;99.90
14995;DHT22;7593;49.006;8.372;2023-09-08T03:46:30;18.40;99.90
14995;DHT22;7593;49.006;8.372;2023-09-08T03:48:57;18.30;99.90
14995;DHT22;7593;49.006;8.372;2023-09-08T03:51:26;18.30;99.90
14995;DHT22;7593;49.006;8.372;2023-09-08T03:53:53;18.30;99.90
14995;DHT22;7593;49.006;8.372;2023-09-08T03:56:20;18.30;99.90
14995;DHT22;7593;49.006;8.372;2023-09-08T03:58:47;18.20;99.90
14995;DHT22;7593;49.006;8.372;2023-09-08T04:01:16;18.20;99.90
14995;DHT22;7593;49.006;8.372;2023-09-08T04:03:42;18.20;99.90
14995;DHT22;7593;49.006;8.372;2023-09-08T04:06:10;18.20;99.90
14995;DHT22;7593;49.006;8.372;2023-09-08T04:08:37;18.20;99.90
14995;DHT22;7593;49.006;8.372;2023-09-08T04:11:03;18.20;99.90
14995;DHT22;7593;49.006;8.372;2023-09-08T04:13:30;18.20;99.90
14995;DHT22;7593;49.006;8.372;2023-09-08T04:15:57;18.10;99.90
14995;DHT22;7593;49.006;8.372;2023-09-08T04:18:25;18.10;99.90
14995;DHT22;7593;49.006;8.372;2023-09-08T04:20:52;18.10;99.90
14995;DHT22;7593;49.006;8.372;2023-09-08T04:23:19;18.00;99.90
14995;DHT22;7593;49.006;8.372;2023-09-08T04:25:46;18.00;99.90
14995;DHT22;7593;49.006;8.372;2023-09-08T04:28:13;17.90;99.90
14995;DHT22;7593;49.006;8.372;2023-09-08T04:30:39;17.80;99.90
14995;DHT22;7593;49.006;8.372;2023-09-08T04:33:06;17.80;99.90
14995;DHT22;7593;49.006;8.372;2023-09-08T04:35:34;17.80;99.90
14995;DHT22;7593;49.006;8.372;2023-09-08T04:38:02;17.80;99.90
14995;DHT22;7593;49.006;8.372;2023-09-08T04:40:29;17.90;99.90
14995;DHT22;7593;49.006;8.372;2023-09-08T04:42:56;17.80;99.90
14995;DHT22;7593;49.006;8.372;2023-09-08T04:45:23;17.80;99.90
14995;DHT22;7593;49.006;8.372;2023-09-08T04:47:49;17.70;99.90
14995;DHT22;7593;49.006;8.372;2023-09-08T04:50:16;17.70;99.90
14995;DHT22;7593;49.006;8.372;2023-09-08T04:52:45;17.60;99.90
14995;DHT22;7593;49.006;8.372;2023-09-08T04:55:11;17.60;99.90
14995;DHT22;7593;49.006;8.372;2023-09-08T04:57:38;17.60;99.90
14995;DHT22;7593;49.006;8.372;2023-09-08T05:00:06;17.60;99.90
14995;DHT22;7593;49.006;8.372;2023-09-08T05:02:33;17.60;99.90
14995;DHT22;7593;49.006;8.372;2023-09-08T05:05:00;17.60;99.90
14995;DHT22;7593;49.006;8.372;2023-09-08T05:07:27;17.60;99.90
14995;DHT22;7593;49.006;8.372;2023-09-08T05:09:55;17.60;99.90
14995;DHT22;7593;49.006;8.372;2023-09-08T05:12:22;17.70;99.90
14995;DHT22;7593;49.006;8.372;2023-09-08T05:14:49;17.70;99.90
14995;DHT22;7593;49.006;8.372;2023-09-08T05:17:21;17.80;99.90
14995;DHT22;7593;49.006;8.372;2023-09-08T05:19:48;17.70;99.90
14995;DHT22;7593;49.006;8.372;2023-09-08T05:22:17;17.80;99.90
14995;DHT22;7593;49.006;8.372;2023-09-08T05:24:43;17.80;99.90
14995;DHT22;7593;49.006;8.372;2023-09-08T05:27:12;17.80;99.90
14995;DHT22;7593;49.006;8.372;2023-09-08T05:29:39;17.80;99.90
14995;DHT22;7593;49.006;8.372;2023-09-08T05:32:05;17.80;99.90
14995;DHT22;7593;49.006;8.372;2023-09-08T05:34:32;17.80;99.90
14995;DHT22;7593;49.006;8.372;2023-09-08T05:36:59;17.80;99.90
14995;DHT22;7593;49.006;8.372;2023-09-08T05:39:26;17.90;99.90
14995;DHT22;7593;49.006;8.372;2023-09-08T05:41:53;18.10;99.90
14995;DHT22;7593;49.006;8.372;2023-09-08T05:44:21;18.30;99.90
14995;DHT22;7593;49.006;8.372;2023-09-08T05:46:48;18.60;99.90
14995;DHT22;7593;49.006;8.372;2023-09-08T05:49:15;18.80;99.90
14995;DHT22;7593;49.006;8.372;2023-09-08T05:51:43;19.10;99.90
14995;DHT22;7593;49.006;8.372;2023-09-08T05:54:10;19.30;99.90
14995;DHT22;7593;49.006;8.372;2023-09-08T05:56:37;19.70;99.90
14995;DHT22;7593;49.006;8.372;2023-09-08T05:59:04;20.00;99.90
14995;DHT22;7593;49.006;8.372;2023-09-08T06:01:33;20.20;99.90
14995;DHT22;7593;49.006;8.372;2023-09-08T06:04:00;20.50;99.90
14995;DHT22;7593;49.006;8.372;2023-09-08T06:06:26;20.70;99.90
14995;DHT22;7593;49.006;8.372;2023-09-08T06:08:54;20.90;99.90
14995;DHT22;7593;49.006;8.372;2023-09-08T06:11:20;21.10;99.90
14995;DHT22;7593;49.006;8.372;2023-09-08T06:13:47;21.20;99.90
14995;DHT22;7593;49.006;8.372;2023-09-08T06:16:14;21.20;99.90
14995;DHT22;7593;49.006;8.372;2023-09-08T06:18:42;21.40;99.90
14995;DHT22;7593;49.006;8.372;2023-09-08T06:21:10;21.50;99.90
14995;DHT22;7593;49.006;8.372;2023-09-08T06:23:36;21.70;99.90
14995;DHT22;7593;49.006;8.372;2023-09-08T06:26:03;22.00;99.90
14995;DHT22;7593;49.006;8.372;2023-09-08T06:28:30;22.30;99.90
14995;DHT22;7593;49.006;8.372;2023-09-08T06:30:57;22.40;99.90
14995;DHT22;7593;49.006;8.372;2023-09-08T06:33:24;22.80;99.90
14995;DHT22;7593;49.006;8.372;2023-09-08T06:35:52;23.00;99.90
14995;DHT22;7593;49.006;8.372;2023-09-08T06:38:19;23.20;99.90
14995;DHT22;7593;49.006;8.372;2023-09-08T06:40:46;23.40;99.90
14995;DHT22;7593;49.006;8.372;2023-09-08T06:43:15;23.60;99.90
14995;DHT22;7593;49.006;8.372;2023-09-08T06:45:42;23.70;99.90
14995;DHT22;7593;49.006;8.372;2023-09-08T06:48:08;23.90;99.90
14995;DHT22;7593;49.006;8.372;2023-09-08T06:50:35;24.10;99.90
14995;DHT22;7593;49.006;8.372;2023-09-08T06:53:04;24.20;99.90
14995;DHT22;7593;49.006;8.372;2023-09-08T06:55:31;24.40;99.90
14995;DHT22;7593;49.006;8.372;2023-09-08T06:57:58;24.50;99.90
14995;DHT22;7593;49.006;8.372;2023-09-08T07:00:24;24.70;99.90
14995;DHT22;7593;49.006;8.372;2023-09-08T07:02:51;24.90;99.90
14995;DHT22;7593;49.006;8.372;2023-09-08T07:05:19;25.00;99.90
14995;DHT22;7593;49.006;8.372;2023-09-08T07:07:46;25.20;99.90
14995;DHT22;7593;49.006;8.372;2023-09-08T07:10:14;25.30;99.90
14995;DHT22;7593;49.006;8.372;2023-09-08T07:12:41;25.50;99.90
14995;DHT22;7593;49.006;8.372;2023-09-08T07:15:09;25.40;99.90
14995;DHT22;7593;49.006;8.372;2023-09-08T07:17:36;25.50;99.90
14995;DHT22;7593;49.006;8.372;2023-09-08T07:20:04;25.70;99.90
14995;DHT22;7593;49.006;8.372;2023-09-08T07:22:31;25.90;99.70
14995;DHT22;7593;49.006;8.372;2023-09-08T07:24:58;26.00;99.40
14995;DHT22;7593;49.006;8.372;2023-09-08T07:27:26;26.00;99.30
14995;DHT22;7593;49.006;8.372;2023-09-08T07:29:53;25.90;99.60
14995;DHT22;7593;49.006;8.372;2023-09-08T07:32:20;26.10;99.50
14995;DHT22;7593;49.006;8.372;2023-09-08T07:34:47;26.20;99.40
14995;DHT22;7593;49.006;8.372;2023-09-08T07:37:20;26.40;99.10
14995;DHT22;7593;49.006;8.372;2023-09-08T07:39:47;26.50;98.80
14995;DHT22;7593;49.006;8.372;2023-09-08T07:42:14;26.40;98.80
14995;DHT22;7593;49.006;8.372;2023-09-08T07:44:42;26.40;99.00
14995;DHT22;7593;49.006;8.372;2023-09-08T07:47:09;26.50;99.30
14995;DHT22;7593;49.006;8.372;2023-09-08T07:49:36;26.60;99.10
14995;DHT22;7593;49.006;8.372;2023-09-08T07:52:03;26.60;99.10
14995;DHT22;7593;49.006;8.372;2023-09-08T07:54:32;26.80;99.10
14995;DHT22;7593;49.006;8.372;2023-09-08T07:56:59;26.90;98.90
14995;DHT22;7593;49.006;8.372;2023-09-08T07:59:26;26.80;98.90
14995;DHT22;7593;49.006;8.372;2023-09-08T08:01:54;27.00;98.80
14995;DHT22;7593;49.006;8.372;2023-09-08T08:04:21;27.00;98.50
14995;DHT22;7593;49.006;8.372;2023-09-08T08:06:47;27.00;98.40
14995;DHT22;7593;49.006;8.372;2023-09-08T08:09:14;27.00;98.40
14995;DHT22;7593;49.006;8.372;2023-09-08T08:11:41;27.50;98.00
14995;DHT22;7593;49.006;8.372;2023-09-08T08:14:08;27.50;97.80
14995;DHT22;7593;49.006;8.372;2023-09-08T08:16:35;27.60;97.90
14995;DHT22;7593;49.006;8.372;2023-09-08T08:19:03;27.80;98.00
14995;DHT22;7593;49.006;8.372;2023-09-08T08:21:30;28.10;98.10
14995;DHT22;7593;49.006;8.372;2023-09-08T08:23:57;28.50;98.00
14995;DHT22;7593;49.006;8.372;2023-09-08T08:26:24;28.80;97.70
14995;DHT22;7593;49.006;8.372;2023-09-08T08:28:54;28.80;97.80
14995;DHT22;7593;49.006;8.372;2023-09-08T08:31:20;28.80;97.40
14995;DHT22;7593;49.006;8.372;2023-09-08T08:33:47;28.60;97.50
14995;DHT22;7593;49.006;8.372;2023-09-08T08:36:16;28.70;97.60
14995;DHT22;7593;49.006;8.372;2023-09-08T08:38:42;28.80;97.30
14995;DHT22;7593;49.006;8.372;2023-09-08T08:41:10;28.60;97.50
14995;DHT22;7593;49.006;8.372;2023-09-08T08:43:37;29.00;97.20
14995;DHT22;7593;49.006;8.372;2023-09-08T08:46:04;29.00;97.10
14995;DHT22;7593;49.006;8.372;2023-09-08T08:48:32;29.30;96.80
14995;DHT22;7593;49.006;8.372;2023-09-08T08:51:00;29.30;96.40
14995;DHT22;7593;49.006;8.372;2023-09-08T08:53:29;28.90;96.90
14995;DHT22;7593;49.006;8.372;2023-09-08T08:55:59;28.80;97.40
14995;DHT22;7593;49.006;8.372;2023-09-08T08:58:27;28.90;97.60
14995;DHT22;7593;49.006;8.372;2023-09-08T09:00:55;29.00;97.50
14995;DHT22;7593;49.006;8.372;2023-09-08T09:03:26;29.00;97.60
14995;DHT22;7593;49.006;8.372;2023-09-08T09:05:53;29.00;97.70
14995;DHT22;7593;49.006;8.372;2023-09-08T09:08:20;29.10;97.60
14995;DHT22;7593;49.006;8.372;2023-09-08T09:10:52;29.40;97.30
14995;DHT22;7593;49.006;8.372;2023-09-08T09:13:20;29.50;96.80
14995;DHT22;7593;49.006;8.372;2023-09-08T09:15:48;29.50;96.70
14995;DHT22;7593;49.006;8.372;2023-09-08T09:18:15;29.60;96.60
14995;DHT22;7593;49.006;8.372;2023-09-08T09:20:53;29.80;96.30
14995;DHT22;7593;49.006;8.372;2023-09-08T09:23:26;29.80;96.50
14995;DHT22;7593;49.006;8.372;2023-09-08T09:25:57;29.70;96.50
14995;DHT22;7593;49.006;8.372;2023-09-08T09:28:25;29.90;96.90
14995;DHT22;7593;49.006;8.372;2023-09-08T09:30:52;30.00;96.30
14995;DHT22;7593;49.006;8.372;2023-09-08T09:33:21;30.10;96.10
14995;DHT22;7593;49.006;8.372;2023-09-08T09:35:49;30.40;95.90
14995;DHT22;7593;49.006;8.372;2023-09-08T09:38:17;30.40;95.80
14995;DHT22;7593;49.006;8.372;2023-09-08T09:40:45;30.50;95.60
14995;DHT22;7593;49.006;8.372;2023-09-08T09:43:14;30.50;95.40
14995;DHT22;7593;49.006;8.372;2023-09-08T09:45:42;30.30;95.60
14995;DHT22;7593;49.006;8.372;2023-09-08T09:48:10;30.50;95.40
14995;DHT22;7593;49.006;8.372;2023-09-08T09:50:38;30.80;95.30
14995;DHT22;7593;49.006;8.372;2023-09-08T09:53:09;31.10;95.00
14995;DHT22;7593;49.006;8.372;2023-09-08T09:55:37;31.30;94.50
14995;DHT22;7593;49.006;8.372;2023-09-08T09:58:05;31.30;94.40
14995;DHT22;7593;49.006;8.372;2023-09-08T10:00:34;31.20;94.60
14995;DHT22;7593;49.006;8.372;2023-09-08T10:03:04;31.30;94.60
14995;DHT22;7593;49.006;8.372;2023-09-08T10:05:30;31.40;94.30
14995;DHT22;7593;49.006;8.372;2023-09-08T10:07:58;31.30;94.20
14995;DHT22;7593;49.006;8.372;2023-09-08T10:10:27;31.70;93.90
14995;DHT22;7593;49.006;8.372;2023-09-08T10:12:59;32.00;93.50
14995;DHT22;7593;49.006;8.372;2023-09-08T10:15:27;32.10;93.30
14995;DHT22;7593;49.006;8.372;2023-09-08T10:17:56;32.10;93.40
14995;DHT22;7593;49.006;8.372;2023-09-08T10:20:26;32.30;93.10
14995;DHT22;7593;49.006;8.372;2023-09-08T10:22:59;32.60;92.70
14995;DHT22;7593;49.006;8.372;2023-09-08T10:25:47;32.80;92.40
14995;DHT22;7593;49.006;8.372;2023-09-08T10:28:20;33.00;92.10
14995;DHT22;7593;49.006;8.372;2023-09-08T10:30:48;33.10;91.90
14995;DHT22;7593;49.006;8.372;2023-09-08T10:33:18;33.00;91.80
14995;DHT22;7593;49.006;8.372;2023-09-08T10:35:46;33.10;91.80
14995;DHT22;7593;49.006;8.372;2023-09-08T10:38:23;33.20;91.50
14995;DHT22;7593;49.006;8.372;2023-09-08T10:40:50;33.20;91.40
14995;DHT22;7593;49.006;8.372;2023-09-08T10:43:18;33.30;91.20
14995;DHT22;7593;49.006;8.372;2023-09-08T10:45:46;33.20;91.20
14995;DHT22;7593;49.006;8.372;2023-09-08T10:48:14;32.70;91.60
14995;DHT22;7593;49.006;8.372;2023-09-08T10:50:43;32.30;92.00
14995;DHT22;7593;49.006;8.372;2023-09-08T10:53:14;32.20;92.00
14995;DHT22;7593;49.006;8.372;2023-09-08T10:55:42;32.00;92.00
14995;DHT22;7593;49.006;8.372;2023-09-08T10:58:17;32.00;92.20
14995;DHT22;7593;49.006;8.372;2023-09-08T11:00:47;31.60;92.50
14995;DHT22;7593;49.006;8.372;2023-09-08T11:03:26;31.60;92.80
14995;DHT22;7593;49.006;8.372;2023-09-08T11:05:56;31.90;92.60
14995;DHT22;7593;49.006;8.372;2023-09-08T11:08:22;32.40;92.00
14995;DHT22;7593;49.006;8.372;2023-09-08T11:10:49;32.90;91.50
14995;DHT22;7593;49.006;8.372;2023-09-08T11:13:17;33.20;91.30
14995;DHT22;7593;49.006;8.372;2023-09-08T11:15:44;33.30;90.80
14995;DHT22;7593;49.006;8.372;2023-09-08T11:18:11;33.50;90.70
14995;DHT22;7593;49.006;8.372;2023-09-08T11:20:38;33.70;90.60
14995;DHT22;7593;49.006;8.372;2023-09-08T11:23:07;34.10;90.30
14995;DHT22;7593;49.006;8.372;2023-09-08T11:25:33;34.50;89.00
14995;DHT22;7593;49.006;8.372;2023-09-08T11:28:00;34.80;88.40
14995;DHT22;7593;49.006;8.372;2023-09-08T11:30:27;34.70;88.30
14995;DHT22;7593;49.006;8.372;2023-09-08T11:32:54;34.50;88.40
14995;DHT22;7593;49.006;8.372;2023-09-08T11:35:26;34.70;88.00
14995;DHT22;7593;49.006;8.372;2023-09-08T11:37:59;35.00;87.60
14995;DHT22;7593;49.006;8.372;2023-09-08T11:40:30;35.40;86.70
14995;DHT22;7593;49.006;8.372;2023-09-08T11:42:58;35.80;85.80
14995;DHT22;7593;49.006;8.372;2023-09-08T11:45:25;36.00;85.20
14995;DHT22;7593;49.006;8.372;2023-09-08T11:47:53;36.00;84.60
14995;DHT22;7593;49.006;8.372;2023-09-08T11:50:20;36.30;84.40
14995;DHT22;7593;49.006;8.372;2023-09-08T11:52:49;36.40;83.70
14995;DHT22;7593;49.006;8.372;2023-09-08T11:55:17;36.60;83.10
14995;DHT22;7593;49.006;8.372;2023-09-08T11:57:47;36.60;83.00
14995;DHT22;7593;49.006;8.372;2023-09-08T12:00:24;36.80;82.30
14995;DHT22;7593;49.006;8.372;2023-09-08T12:02:51;36.40;82.50
14995;DHT22;7593;49.006;8.372;2023-09-08T12:05:22;36.50;82.20
14995;DHT22;7593;49.006;8.372;2023-09-08T12:07:50;36.40;82.30
14995;DHT22;7593;49.006;8.372;2023-09-08T12:10:17;36.10;82.50
14995;DHT22;7593;49.006;8.372;2023-09-08T12:12:48;36.00;82.30
14995;DHT22;7593;49.006;8.372;2023-09-08T12:15:30;36.30;81.90
14995;DHT22;7593;49.006;8.372;2023-09-08T12:17:59;36.20;81.70
14995;DHT22;7593;49.006;8.372;2023-09-08T12:20:26;36.20;82.00
14995;DHT22;7593;49.006;8.372;2023-09-08T12:22:53;36.30;81.60
14995;DHT22;7593;49.006;8.372;2023-09-08T12:25:20;36.60;81.30
14995;DHT22;7593;49.006;8.372;2023-09-08T12:27:50;37.20;80.20
14995;DHT22;7593;49.006;8.372;2023-09-08T12:30:18;37.40;79.70
14995;DHT22;7593;49.006;8.372;2023-09-08T12:32:47;37.50;78.60
14995;DHT22;7593;49.006;8.372;2023-09-08T12:35:20;37.60;78.60
14995;DHT22;7593;49.006;8.372;2023-09-08T12:37:53;37.50;78.30
14995;DHT22;7593;49.006;8.372;2023-09-08T12:40:20;37.50;78.90
14995;DHT22;7593;49.006;8.372;2023-09-08T12:42:49;38.10;77.60
14995;DHT22;7593;49.006;8.372;2023-09-08T12:45:16;38.60;76.60
14995;DHT22;7593;49.006;8.372;2023-09-08T12:47:43;38.70;76.50
14995;DHT22;7593;49.006;8.372;2023-09-08T12:50:10;38.80;75.70
14995;DHT22;7593;49.006;8.372;2023-09-08T12:52:38;39.00;75.00
14995;DHT22;7593;49.006;8.372;2023-09-08T12:55:06;39.30;74.80
14995;DHT22;7593;49.006;8.372;2023-09-08T12:57:34;39.40;74.20
14995;DHT22;7593;49.006;8.372;2023-09-08T13:00:03;39.50;73.60
14995;DHT22;7593;49.006;8.372;2023-09-08T13:02:30;39.80;72.70
14995;DHT22;7593;49.006;8.372;2023-09-08T13:04:57;39.90;72.70
14995;DHT22;7593;49.006;8.372;2023-09-08T13:07:24;40.20;71.90
14995;DHT22;7593;49.006;8.372;2023-09-08T13:09:51;40.30;71.30
14995;DHT22;7593;49.006;8.372;2023-09-08T13:12:18;40.60;70.60
14995;DHT22;7593;49.006;8.372;2023-09-08T13:14:45;41.10;69.90
14995;DHT22;7593;49.006;8.372;2023-09-08T13:17:14;41.40;68.10
14995;DHT22;7593;49.006;8.372;2023-09-08T13:19:41;40.50;68.90
14995;DHT22;7593;49.006;8.372;2023-09-08T13:22:09;40.60;69.00
14995;DHT22;7593;49.006;8.372;2023-09-08T13:24:36;40.90;68.00
14995;DHT22;7593;49.006;8.372;2023-09-08T13:27:03;41.00;68.00
14995;DHT22;7593;49.006;8.372;2023-09-08T13:29:30;41.50;67.40
14995;DHT22;7593;49.006;8.372;2023-09-08T13:31:57;41.50;66.70
14995;DHT22;7593;49.006;8.372;2023-09-08T13:34:25;41.40;66.70
14995;DHT22;7593;49.006;8.372;2023-09-08T13:36:52;41.30;66.70
14995;DHT22;7593;49.006;8.372;2023-09-08T13:39:19;41.20;66.80
14995;DHT22;7593;49.006;8.372;2023-09-08T13:41:47;41.30;66.20
14995;DHT22;7593;49.006;8.372;2023-09-08T13:44:16;41.40;65.50
14995;DHT22;7593;49.006;8.372;2023-09-08T13:46:43;41.80;64.90
14995;DHT22;7593;49.006;8.372;2023-09-08T13:49:10;42.20;63.80
14995;DHT22;7593;49.006;8.372;2023-09-08T13:51:39;42.00;64.20
14995;DHT22;7593;49.006;8.372;2023-09-08T13:54:06;42.30;63.00
14995;DHT22;7593;49.006;8.372;2023-09-08T13:56:33;42.40;62.70
14995;DHT22;7593;49.006;8.372;2023-09-08T13:59:00;42.10;62.40
14995;DHT22;7593;49.006;8.372;2023-09-08T14:01:27;42.30;62.30
14995;DHT22;7593;49.006;8.372;2023-09-08T14:03:54;42.50;61.90
14995;DHT22;7593;49.006;8.372;2023-09-08T14:06:23;42.60;61.40
14995;DHT22;7593;49.006;8.372;2023-09-08T14:08:51;42.70;61.10
14995;DHT22;7593;49.006;8.372;2023-09-08T14:11:19;42.80;60.50
14995;DHT22;7593;49.006;8.372;2023-09-08T14:13:46;42.50;60.30
14995;DHT22;7593;49.006;8.372;2023-09-08T14:16:12;42.20;60.70
14995;DHT22;7593;49.006;8.372;2023-09-08T14:18:40;41.60;61.50
14995;DHT22;7593;49.006;8.372;2023-09-08T14:21:07;41.40;61.90
14995;DHT22;7593;49.006;8.372;2023-09-08T14:23:34;41.20;62.20
14995;DHT22;7593;49.006;8.372;2023-09-08T14:26:04;41.20;62.10
14995;DHT22;7593;49.006;8.372;2023-09-08T14:28:31;41.30;61.70
14995;DHT22;7593;49.006;8.372;2023-09-08T14:30:58;41.30;62.00
14995;DHT22;7593;49.006;8.372;2023-09-08T14:33:25;41.40;61.50
14995;DHT22;7593;49.006;8.372;2023-09-08T14:35:52;41.30;61.50
14995;DHT22;7593;49.006;8.372;2023-09-08T14:38:20;41.20;61.70
14995;DHT22;7593;49.006;8.372;2023-09-08T14:40:55;41.00;61.70
14995;DHT22;7593;49.006;8.372;2023-09-08T14:43:23;41.00;61.50
14995;DHT22;7593;49.006;8.372;2023-09-08T14:45:51;41.00;61.60
14995;DHT22;7593;49.006;8.372;2023-09-08T14:48:18;40.90;61.30
14995;DHT22;7593;49.006;8.372;2023-09-08T14:50:45;40.80;61.30
14995;DHT22;7593;49.006;8.372;2023-09-08T14:53:12;40.50;61.70
14995;DHT22;7593;49.006;8.372;2023-09-08T14:55:40;40.30;62.20
14995;DHT22;7593;49.006;8.372;2023-09-08T14:58:09;40.40;62.70
14995;DHT22;7593;49.006;8.372;2023-09-08T15:00:37;40.00;62.80
14995;DHT22;7593;49.006;8.372;2023-09-08T15:03:05;39.50;63.60
14995;DHT22;7593;49.006;8.372;2023-09-08T15:05:32;39.10;64.30
14995;DHT22;7593;49.006;8.372;2023-09-08T15:08:00;39.00;64.20
14995;DHT22;7593;49.006;8.372;2023-09-08T15:10:27;39.10;64.30
14995;DHT22;7593;49.006;8.372;2023-09-08T15:12:54;39.00;64.50
14995;DHT22;7593;49.006;8.372;2023-09-08T15:15:21;39.00;64.90
14995;DHT22;7593;49.006;8.372;2023-09-08T15:17:51;39.20;64.80
14995;DHT22;7593;49.006;8.372;2023-09-08T15:20:18;39.20;64.30
14995;DHT22;7593;49.006;8.372;2023-09-08T15:22:45;38.90;64.70
14995;DHT22;7593;49.006;8.372;2023-09-08T15:25:13;38.70;65.30
14995;DHT22;7593;49.006;8.372;2023-09-08T15:27:40;38.30;65.60
14995;DHT22;7593;49.006;8.372;2023-09-08T15:30:07;38.00;66.50
14995;DHT22;7593;49.006;8.372;2023-09-08T15:32:35;37.90;66.80
14995;DHT22;7593;49.006;8.372;2023-09-08T15:35:06;37.70;67.10
14995;DHT22;7593;49.006;8.372;2023-09-08T15:37:33;37.70;67.20
14995;DHT22;7593;49.006;8.372;2023-09-08T15:40:01;37.60;67.20
14995;DHT22;7593;49.006;8.372;2023-09-08T15:42:28;37.50;67.40
14995;DHT22;7593;49.006;8.372;2023-09-08T15:44:56;37.40;67.90
14995;DHT22;7593;49.006;8.372;2023-09-08T15:47:22;37.30;68.30
14995;DHT22;7593;49.006;8.372;2023-09-08T15:49:49;37.20;68.20
14995;DHT22;7593;49.006;8.372;2023-09-08T15:52:18;37.20;68.20